sensor_id;sensor_type;location;lat;lon;timestamp;temperature;humidity
4564;DHT22;2294;51.818;8.484;2022-10-30T00:00:47;14.10;99.90
4564;DHT22;2294;51.818;8.484;2022-10-30T00:03:15;14.00;99.90
4564;DHT22;2294;51.818;8.484;2022-10-30T00:05:43;14.00;99.90
4564;DHT22;2294;51.818;8.484;2022-10-30T00:08:11;13.90;99.90
4564;DHT22;2294;51.818;8.484;2022-10-30T00:10:40;13.90;99.90
4564;DHT22;2294;51.818;8.484;2022-10-30T00:13:08;14.00;99.90
4564;DHT22;2294;51.818;8.484;2022-10-30T00:15:35;14.10;99.90
4564;DHT22;2294;51.818;8.484;2022-10-30T00:18:02;14.20;99.90
4564;DHT22;2294;51.818;8.484;2022-10-30T00:20:29;14.10;99.90
4564;DHT22;2294;51.818;8.484;2022-10-30T00:22:57;14.20;99.90
4564;DHT22;2294;51.818;8.484;2022-10-30T00:25:23;14.20;99.90
4564;DHT22;2294;51.818;8.484;2022-10-30T00:27:52;14.20;99.90
4564;DHT22;2294;51.818;8.484;2022-10-30T00:30:19;14.20;99.90
4564;DHT22;2294;51.818;8.484;2022-10-30T00:32:45;14.10;99.90
4564;DHT22;2294;51.818;8.484;2022-10-30T00:35:12;14.10;99.90
4564;DHT22;2294;51.818;8.484;2022-10-30T00:37:39;14.00;99.90
4564;DHT22;2294;51.818;8.484;2022-10-30T00:40:08;14.10;99.90
4564;DHT22;2294;51.818;8.484;2022-10-30T00:42:35;14.10;99.90
4564;DHT22;2294;51.818;8.484;2022-10-30T00:45:04;14.10;99.90
4564;DHT22;2294;51.818;8.484;2022-10-30T00:47:33;14.10;99.90
4564;DHT22;2294;51.818;8.484;2022-10-30T00:50:04;14.00;99.90
4564;DHT22;2294;51.818;8.484;2022-10-30T00:52:34;14.00;99.90
4564;DHT22;2294;51.818;8.484;2022-10-30T00:55:06;14.10;99.90
4564;DHT22;2294;51.818;8.484;2022-10-30T00:57:35;14.00;99.90
4564;DHT22;2294;51.818;8.484;2022-10-30T01:00:08;14.00;99.90
4564;DHT22;2294;51.818;8.484;2022-10-30T01:02:36;14.00;99.90
4564;DHT22;2294;51.818;8.484;2022-10-30T01:05:04;13.90;99.90
4564;DHT22;2294;51.818;8.484;2022-10-30T01:07:31;14.00;99.90
4564;DHT22;2294;51.818;8.484;2022-10-30T01:09:58;14.00;99.90
4564;DHT22;2294;51.818;8.484;2022-10-30T01:12:26;14.00;99.90
4564;DHT22;2294;51.818;8.484;2022-10-30T01:14:55;14.00;99.90
4564;DHT22;2294;51.818;8.484;2022-10-30T01:17:53;14.00;99.90
4564;DHT22;2294;51.818;8.484;2022-10-30T01:20:36;14.00;99.90
4564;DHT22;2294;51.818;8.484;2022-10-30T01:23:15;14.10;99.90
4564;DHT22;2294;51.818;8.484;2022-10-30T01:25:50;14.10;99.90
4564;DHT22;2294;51.818;8.484;2022-10-30T01:28:27;14.10;99.90
4564;DHT22;2294;51.818;8.484;2022-10-30T01:31:06;14.10;99.90
4564;DHT22;2294;51.818;8.484;2022-10-30T01:33:46;14.10;99.90
4564;DHT22;2294;51.818;8.484;2022-10-30T01:36:21;14.10;99.90
4564;DHT22;2294;51.818;8.484;2022-10-30T01:38:54;14.10;99.90
4564;DHT22;2294;51.818;8.484;2022-10-30T01:41:22;14.00;99.90
4564;DHT22;2294;51.818;8.484;2022-10-30T01:43:52;13.90;99.90
4564;DHT22;2294;51.818;8.484;2022-10-30T01:46:35;14.00;99.90
4564;DHT22;2294;51.818;8.484;2022-10-30T01:49:24;14.00;99.90
4564;DHT22;2294;51.818;8.484;2022-10-30T01:52:05;14.00;99.90
4564;DHT22;2294;51.818;8.484;2022-10-30T01:54:38;13.90;99.90
4564;DHT22;2294;51.818;8.484;2022-10-30T01:57:11;14.00;99.90
4564;DHT22;2294;51.818;8.484;2022-10-30T01:59:45;14.00;99.90
4564;DHT22;2294;51.818;8.484;2022-10-30T02:02:13;14.00;99.90
4564;DHT22;2294;51.818;8.484;2022-10-30T02:04:42;14.00;99.90
4564;DHT22;2294;51.818;8.484;2022-10-30T02:07:09;13.90;99.90
4564;DHT22;2294;51.818;8.484;2022-10-30T02:09:37;13.90;99.90
4564;DHT22;2294;51.818;8.484;2022-10-30T02:12:06;13.90;99.90
4564;DHT22;2294;51.818;8.484;2022-10-30T02:14:35;13.90;99.90
4564;DHT22;2294;51.818;8.484;2022-10-30T02:17:04;13.80;99.90
4564;DHT22;2294;51.818;8.484;2022-10-30T02:19:32;13.90;99.90
4564;DHT22;2294;51.818;8.484;2022-10-30T02:22:00;13.90;99.90
4564;DHT22;2294;51.818;8.484;2022-10-30T02:24:27;13.90;99.90
4564;DHT22;2294;51.818;8.484;2022-10-30T02:26:54;13.90;99.90
4564;DHT22;2294;51.818;8.484;2022-10-30T02:29:21;13.80;99.90
4564;DHT22;2294;51.818;8.484;2022-10-30T02:31:48;13.80;99.90
4564;DHT22;2294;51.818;8.484;2022-10-30T02:34:15;13.90;99.90
4564;DHT22;2294;51.818;8.484;2022-10-30T02:36:42;13.90;99.90
4564;DHT22;2294;51.818;8.484;2022-10-30T02:39:10;13.90;99.90
4564;DHT22;2294;51.818;8.484;2022-10-30T02:41:37;13.80;99.90
4564;DHT22;2294;51.818;8.484;2022-10-30T02:44:05;13.80;99.90
4564;DHT22;2294;51.818;8.484;2022-10-30T02:46:32;13.80;99.90
4564;DHT22;2294;51.818;8.484;2022-10-30T02:48:59;13.80;99.90
4564;DHT22;2294;51.818;8.484;2022-10-30T02:51:26;13.60;99.90
4564;DHT22;2294;51.818;8.484;2022-10-30T02:53:53;13.70;99.90
4564;DHT22;2294;51.818;8.484;2022-10-30T02:56:21;13.70;99.90
4564;DHT22;2294;51.818;8.484;2022-10-30T02:58:48;13.70;99.90
4564;DHT22;2294;51.818;8.484;2022-10-30T03:01:16;13.90;99.90
4564;DHT22;2294;51.818;8.484;2022-10-30T03:03:44;13.70;99.90
4564;DHT22;2294;51.818;8.484;2022-10-30T03:06:13;13.70;99.90
4564;DHT22;2294;51.818;8.484;2022-10-30T03:08:40;13.60;99.90
4564;DHT22;2294;51.818;8.484;2022-10-30T03:11:09;13.60;99.90
4564;DHT22;2294;51.818;8.484;2022-10-30T03:13:38;13.60;99.90
4564;DHT22;2294;51.818;8.484;2022-10-30T03:16:07;13.50;99.90
4564;DHT22;2294;51.818;8.484;2022-10-30T03:18:35;13.50;99.90
4564;DHT22;2294;51.818;8.484;2022-10-30T03:21:04;13.50;99.90
4564;DHT22;2294;51.818;8.484;2022-10-30T03:23:32;13.50;99.90
4564;DHT22;2294;51.818;8.484;2022-10-30T03:25:59;13.40;99.90
4564;DHT22;2294;51.818;8.484;2022-10-30T03:28:28;13.30;99.90
4564;DHT22;2294;51.818;8.484;2022-10-30T03:30:59;13.40;99.90
4564;DHT22;2294;51.818;8.484;2022-10-30T03:33:26;13.20;99.90
4564;DHT22;2294;51.818;8.484;2022-10-30T03:35:53;13.30;99.90
4564;DHT22;2294;51.818;8.484;2022-10-30T03:38:21;13.30;99.90
4564;DHT22;2294;51.818;8.484;2022-10-30T03:40:48;13.30;99.90
4564;DHT22;2294;51.818;8.484;2022-10-30T03:43:15;13.30;99.90
4564;DHT22;2294;51.818;8.484;2022-10-30T03:45:46;13.20;99.90
4564;DHT22;2294;51.818;8.484;2022-10-30T03:48:15;13.30;99.90
4564;DHT22;2294;51.818;8.484;2022-10-30T03:50:42;13.30;99.90
4564;DHT22;2294;51.818;8.484;2022-10-30T03:53:10;13.20;99.90
4564;DHT22;2294;51.818;8.484;2022-10-30T03:55:37;13.20;99.90
4564;DHT22;2294;51.818;8.484;2022-10-30T03:58:04;13.10;99.90
4564;DHT22;2294;51.818;8.484;2022-10-30T04:00:32;13.10;99.90
4564;DHT22;2294;51.818;8.484;2022-10-30T04:03:00;13.10;99.90
4564;DHT22;2294;51.818;8.484;2022-10-30T04:05:28;13.10;99.90
4564;DHT22;2294;51.818;8.484;2022-10-30T04:07:55;13.10;99.90
4564;DHT22;2294;51.818;8.484;2022-10-30T04:10:23;13.10;99.90
4564;DHT22;2294;51.818;8.484;2022-10-30T04:12:50;13.10;99.90
4564;DHT22;2294;51.818;8.484;2022-10-30T04:15:17;13.00;99.90
4564;DHT22;2294;51.818;8.484;2022-10-30T04:17:48;13.00;99.90
4564;DHT22;2294;51.818;8.484;2022-10-30T04:20:16;13.10;99.90
4564;DHT22;2294;51.818;8.484;2022-10-30T04:22:44;12.90;99.90
4564;DHT22;2294;51.818;8.484;2022-10-30T04:25:11;13.00;99.90
4564;DHT22;2294;51.818;8.484;2022-10-30T04:27:39;12.90;99.90
4564;DHT22;2294;51.818;8.484;2022-10-30T04:30:08;12.90;99.90
4564;DHT22;2294;51.818;8.484;2022-10-30T04:32:35;12.90;99.90
4564;DHT22;2294;51.818;8.484;2022-10-30T04:35:02;12.90;99.90
4564;DHT22;2294;51.818;8.484;2022-10-30T04:37:29;13.00;99.90
4564;DHT22;2294;51.818;8.484;2022-10-30T04:39:57;12.90;99.90
4564;DHT22;2294;51.818;8.484;2022-10-30T04:42:24;12.90;99.90
4564;DHT22;2294;51.818;8.484;2022-10-30T04:44:51;12.80;99.90
4564;DHT22;2294;51.818;8.484;2022-10-30T04:47:18;12.90;99.90
4564;DHT22;2294;51.818;8.484;2022-10-30T04:49:45;12.80;99.90
4564;DHT22;2294;51.818;8.484;2022-10-30T04:52:11;12.80;99.90
4564;DHT22;2294;51.818;8.484;2022-10-30T04:54:38;12.70;99.90
4564;DHT22;2294;51.818;8.484;2022-10-30T04:57:07;12.60;99.90
4564;DHT22;2294;51.818;8.484;2022-10-30T04:59:34;12.50;99.90
4564;DHT22;2294;51.818;8.484;2022-10-30T05:02:01;12.50;99.90
4564;DHT22;2294;51.818;8.484;2022-10-30T05:04:28;12.40;99.90
4564;DHT22;2294;51.818;8.484;2022-10-30T05:06:54;12.30;99.90
4564;DHT22;2294;51.818;8.484;2022-10-30T05:09:21;12.40;99.90
4564;DHT22;2294;51.818;8.484;2022-10-30T05:11:48;12.20;99.90
4564;DHT22;2294;51.818;8.484;2022-10-30T05:14:16;12.20;99.90
4564;DHT22;2294;51.818;8.484;2022-10-30T05:16:43;12.20;99.90
4564;DHT22;2294;51.818;8.484;2022-10-30T05:19:10;12.10;99.90
4564;DHT22;2294;51.818;8.484;2022-10-30T05:21:38;12.10;99.90
4564;DHT22;2294;51.818;8.484;2022-10-30T05:24:05;12.20;99.90
4564;DHT22;2294;51.818;8.484;2022-10-30T05:26:32;12.00;99.90
4564;DHT22;2294;51.818;8.484;2022-10-30T05:28:59;12.10;99.90
4564;DHT22;2294;51.818;8.484;2022-10-30T05:31:27;12.00;99.90
4564;DHT22;2294;51.818;8.484;2022-10-30T05:33:54;12.10;99.90
4564;DHT22;2294;51.818;8.484;2022-10-30T05:36:21;12.00;99.90
4564;DHT22;2294;51.818;8.484;2022-10-30T05:38:48;11.90;99.90
4564;DHT22;2294;51.818;8.484;2022-10-30T05:41:15;12.00;99.90
4564;DHT22;2294;51.818;8.484;2022-10-30T05:43:41;12.00;99.90
4564;DHT22;2294;51.818;8.484;2022-10-30T05:46:08;12.10;99.90
4564;DHT22;2294;51.818;8.484;2022-10-30T05:48:37;12.00;99.90
4564;DHT22;2294;51.818;8.484;2022-10-30T05:51:04;12.00;99.90
4564;DHT22;2294;51.818;8.484;2022-10-30T05:53:33;11.90;99.90
4564;DHT22;2294;51.818;8.484;2022-10-30T05:55:59;11.80;99.90
4564;DHT22;2294;51.818;8.484;2022-10-30T05:58:26;11.80;99.90
4564;DHT22;2294;51.818;8.484;2022-10-30T06:00:53;11.70;99.90
4564;DHT22;2294;51.818;8.484;2022-10-30T06:03:20;11.70;99.90
4564;DHT22;2294;51.818;8.484;2022-10-30T06:05:48;11.70;99.90
4564;DHT22;2294;51.818;8.484;2022-10-30T06:08:15;11.70;99.90
4564;DHT22;2294;51.818;8.484;2022-10-30T06:10:42;11.60;99.90
4564;DHT22;2294;51.818;8.484;2022-10-30T06:13:09;11.60;99.90
4564;DHT22;2294;51.818;8.484;2022-10-30T06:15:36;11.60;99.90
4564;DHT22;2294;51.818;8.484;2022-10-30T06:18:03;11.60;99.90
4564;DHT22;2294;51.818;8.484;2022-10-30T06:20:31;11.60;99.90
4564;DHT22;2294;51.818;8.484;2022-10-30T06:23:01;11.60;99.90
4564;DHT22;2294;51.818;8.484;2022-10-30T06:25:29;11.60;99.90
4564;DHT22;2294;51.818;8.484;2022-10-30T06:27:57;11.50;99.90
4564;DHT22;2294;51.818;8.484;2022-10-30T06:30:24;11.60;99.90
4564;DHT22;2294;51.818;8.484;2022-10-30T06:32:55;11.50;99.90
4564;DHT22;2294;51.818;8.484;2022-10-30T06:35:22;11.50;99.90
4564;DHT22;2294;51.818;8.484;2022-10-30T06:37:49;11.50;99.90
4564;DHT22;2294;51.818;8.484;2022-10-30T06:40:19;11.60;99.90
4564;DHT22;2294;51.818;8.484;2022-10-30T06:42:48;11.60;99.90
4564;DHT22;2294;51.818;8.484;2022-10-30T06:45:17;11.60;99.90
4564;DHT22;2294;51.818;8.484;2022-10-30T06:47:44;11.60;99.90
4564;DHT22;2294;51.818;8.484;2022-10-30T06:50:13;11.70;99.90
4564;DHT22;2294;51.818;8.484;2022-10-30T06:52:40;11.70;99.90
4564;DHT22;2294;51.818;8.484;2022-10-30T06:55:07;11.70;99.90
4564;DHT22;2294;51.818;8.484;2022-10-30T06:57:36;11.80;99.90
4564;DHT22;2294;51.818;8.484;2022-10-30T07:00:04;11.90;99.90
4564;DHT22;2294;51.818;8.484;2022-10-30T07:02:31;11.90;99.90
4564;DHT22;2294;51.818;8.484;2022-10-30T07:04:58;11.90;99.90
4564;DHT22;2294;51.818;8.484;2022-10-30T07:07:25;12.00;99.90
4564;DHT22;2294;51.818;8.484;2022-10-30T07:09:52;12.10;99.90
4564;DHT22;2294;51.818;8.484;2022-10-30T07:12:19;12.10;99.90
4564;DHT22;2294;51.818;8.484;2022-10-30T07:14:47;12.10;99.90
4564;DHT22;2294;51.818;8.484;2022-10-30T07:17:14;12.20;99.90
4564;DHT22;2294;51.818;8.484;2022-10-30T07:19:41;12.20;99.90
4564;DHT22;2294;51.818;8.484;2022-10-30T07:22:08;12.30;99.90
4564;DHT22;2294;51.818;8.484;2022-10-30T07:24:35;12.40;99.90
4564;DHT22;2294;51.818;8.484;2022-10-30T07:27:01;12.40;99.90
4564;DHT22;2294;51.818;8.484;2022-10-30T07:29:28;12.40;99.90
4564;DHT22;2294;51.818;8.484;2022-10-30T07:35:19;12.50;99.90
4564;DHT22;2294;51.818;8.484;2022-10-30T07:37:45;12.70;99.90
4564;DHT22;2294;51.818;8.484;2022-10-30T07:40:12;12.80;99.90
4564;DHT22;2294;51.818;8.484;2022-10-30T07:42:39;12.80;99.90
4564;DHT22;2294;51.818;8.484;2022-10-30T07:45:07;13.00;99.90
4564;DHT22;2294;51.818;8.484;2022-10-30T07:47:38;13.20;99.90
4564;DHT22;2294;51.818;8.484;2022-10-30T07:50:05;13.20;99.90
4564;DHT22;2294;51.818;8.484;2022-10-30T07:52:34;13.20;99.90
4564;DHT22;2294;51.818;8.484;2022-10-30T07:55:01;13.20;99.90
4564;DHT22;2294;51.818;8.484;2022-10-30T07:57:30;13.30;99.90
4564;DHT22;2294;51.818;8.484;2022-10-30T07:59:57;13.60;99.90
4564;DHT22;2294;51.818;8.484;2022-10-30T08:02:24;13.70;99.90
4564;DHT22;2294;51.818;8.484;2022-10-30T08:04:51;13.60;99.90
4564;DHT22;2294;51.818;8.484;2022-10-30T08:07:18;13.70;99.90
4564;DHT22;2294;51.818;8.484;2022-10-30T08:09:46;13.70;99.90
4564;DHT22;2294;51.818;8.484;2022-10-30T08:12:14;13.80;99.90
4564;DHT22;2294;51.818;8.484;2022-10-30T08:14:41;13.80;99.90
4564;DHT22;2294;51.818;8.484;2022-10-30T08:17:07;14.10;99.90
4564;DHT22;2294;51.818;8.484;2022-10-30T08:19:35;14.40;99.90
4564;DHT22;2294;51.818;8.484;2022-10-30T08:22:02;14.40;99.90
4564;DHT22;2294;51.818;8.484;2022-10-30T08:24:29;14.60;99.90
4564;DHT22;2294;51.818;8.484;2022-10-30T08:26:57;14.80;99.90
4564;DHT22;2294;51.818;8.484;2022-10-30T08:29:24;15.00;99.90
4564;DHT22;2294;51.818;8.484;2022-10-30T08:31:51;14.90;99.90
4564;DHT22;2294;51.818;8.484;2022-10-30T08:34:18;14.80;99.90
4564;DHT22;2294;51.818;8.484;2022-10-30T08:36:47;14.80;99.90
4564;DHT22;2294;51.818;8.484;2022-10-30T08:39:14;14.90;99.90
4564;DHT22;2294;51.818;8.484;2022-10-30T08:41:41;15.00;99.90
4564;DHT22;2294;51.818;8.484;2022-10-30T08:44:09;14.90;99.90
4564;DHT22;2294;51.818;8.484;2022-10-30T08:46:37;15.00;99.90
4564;DHT22;2294;51.818;8.484;2022-10-30T08:49:04;15.10;99.90
4564;DHT22;2294;51.818;8.484;2022-10-30T08:51:31;15.00;99.90
4564;DHT22;2294;51.818;8.484;2022-10-30T08:53:58;15.00;99.90
4564;DHT22;2294;51.818;8.484;2022-10-30T08:56:25;15.00;99.90
4564;DHT22;2294;51.818;8.484;2022-10-30T08:58:52;15.30;99.90
4564;DHT22;2294;51.818;8.484;2022-10-30T09:01:20;15.40;99.90
4564;DHT22;2294;51.818;8.484;2022-10-30T09:03:47;15.40;99.90
4564;DHT22;2294;51.818;8.484;2022-10-30T09:06:14;15.60;99.90
4564;DHT22;2294;51.818;8.484;2022-10-30T09:08:41;15.80;99.90
4564;DHT22;2294;51.818;8.484;2022-10-30T09:11:08;15.90;99.90
4564;DHT22;2294;51.818;8.484;2022-10-30T09:13:35;15.90;99.90
4564;DHT22;2294;51.818;8.484;2022-10-30T09:16:02;15.90;99.90
4564;DHT22;2294;51.818;8.484;2022-10-30T09:18:31;15.90;99.90
4564;DHT22;2294;51.818;8.484;2022-10-30T09:20:58;16.00;99.90
4564;DHT22;2294;51.818;8.484;2022-10-30T09:23:25;16.10;99.90
4564;DHT22;2294;51.818;8.484;2022-10-30T09:25:52;16.20;99.90
4564;DHT22;2294;51.818;8.484;2022-10-30T09:28:22;16.30;99.90
4564;DHT22;2294;51.818;8.484;2022-10-30T09:30:49;16.40;99.90
4564;DHT22;2294;51.818;8.484;2022-10-30T09:33:20;16.60;99.90
4564;DHT22;2294;51.818;8.484;2022-10-30T09:35:49;16.60;99.90
4564;DHT22;2294;51.818;8.484;2022-10-30T09:38:16;16.60;99.90
4564;DHT22;2294;51.818;8.484;2022-10-30T09:40:55;16.60;99.90
4564;DHT22;2294;51.818;8.484;2022-10-30T09:43:32;16.80;99.90
4564;DHT22;2294;51.818;8.484;2022-10-30T09:46:20;17.00;99.90
4564;DHT22;2294;51.818;8.484;2022-10-30T09:49:12;17.00;99.90
4564;DHT22;2294;51.818;8.484;2022-10-30T09:51:57;17.10;99.90
4564;DHT22;2294;51.818;8.484;2022-10-30T09:54:38;17.20;99.90
4564;DHT22;2294;51.818;8.484;2022-10-30T09:57:14;17.30;99.90
4564;DHT22;2294;51.818;8.484;2022-10-30T09:59:58;17.50;99.90
4564;DHT22;2294;51.818;8.484;2022-10-30T10:02:33;17.50;99.90
4564;DHT22;2294;51.818;8.484;2022-10-30T10:05:09;17.50;99.90
4564;DHT22;2294;51.818;8.484;2022-10-30T10:07:43;17.70;99.90
4564;DHT22;2294;51.818;8.484;2022-10-30T10:10:16;17.80;99.90
4564;DHT22;2294;51.818;8.484;2022-10-30T10:12:47;17.80;99.90
4564;DHT22;2294;51.818;8.484;2022-10-30T10:15:19;18.00;99.90
4564;DHT22;2294;51.818;8.484;2022-10-30T10:17:49;18.40;99.90
4564;DHT22;2294;51.818;8.484;2022-10-30T10:20:26;18.40;99.90
4564;DHT22;2294;51.818;8.484;2022-10-30T10:22:56;18.40;99.90
4564;DHT22;2294;51.818;8.484;2022-10-30T10:25:25;18.40;99.90
4564;DHT22;2294;51.818;8.484;2022-10-30T10:28:03;18.50;99.90
4564;DHT22;2294;51.818;8.484;2022-10-30T10:30:41;18.60;99.90
4564;DHT22;2294;51.818;8.484;2022-10-30T10:33:44;18.90;99.90
4564;DHT22;2294;51.818;8.484;2022-10-30T10:36:22;18.90;99.90
4564;DHT22;2294;51.818;8.484;2022-10-30T10:39:13;19.10;99.90
4564;DHT22;2294;51.818;8.484;2022-10-30T10:41:53;19.10;99.90
4564;DHT22;2294;51.818;8.484;2022-10-30T10:44:36;19.00;99.90
4564;DHT22;2294;51.818;8.484;2022-10-30T10:47:17;19.10;99.90
4564;DHT22;2294;51.818;8.484;2022-10-30T10:50:00;19.30;99.90
4564;DHT22;2294;51.818;8.484;2022-10-30T10:52:35;19.60;99.90
4564;DHT22;2294;51.818;8.484;2022-10-30T10:55:11;19.50;99.90
4564;DHT22;2294;51.818;8.484;2022-10-30T10:57:40;19.50;99.90
4564;DHT22;2294;51.818;8.484;2022-10-30T11:00:13;19.50;99.90
4564;DHT22;2294;51.818;8.484;2022-10-30T11:02:45;19.60;99.90
4564;DHT22;2294;51.818;8.484;2022-10-30T11:05:20;19.70;99.90
4564;DHT22;2294;51.818;8.484;2022-10-30T11:07:49;19.80;99.90
4564;DHT22;2294;51.818;8.484;2022-10-30T11:10:19;19.90;99.90
4564;DHT22;2294;51.818;8.484;2022-10-30T11:12:49;20.10;99.90
4564;DHT22;2294;51.818;8.484;2022-10-30T11:15:48;20.20;99.90
4564;DHT22;2294;51.818;8.484;2022-10-30T11:18:16;20.40;99.90
4564;DHT22;2294;51.818;8.484;2022-10-30T11:20:52;20.30;99.90
4564;DHT22;2294;51.818;8.484;2022-10-30T11:23:32;20.40;99.90
4564;DHT22;2294;51.818;8.484;2022-10-30T11:26:01;20.40;99.90
4564;DHT22;2294;51.818;8.484;2022-10-30T11:28:43;20.40;99.90
4564;DHT22;2294;51.818;8.484;2022-10-30T11:31:20;20.50;99.90
4564;DHT22;2294;51.818;8.484;2022-10-30T11:33:49;20.50;99.90
4564;DHT22;2294;51.818;8.484;2022-10-30T11:36:20;20.50;99.90
4564;DHT22;2294;51.818;8.484;2022-10-30T11:38:48;20.70;99.90
4564;DHT22;2294;51.818;8.484;2022-10-30T11:41:17;20.60;99.90
4564;DHT22;2294;51.818;8.484;2022-10-30T11:43:44;20.40;99.90
4564;DHT22;2294;51.818;8.484;2022-10-30T11:46:19;20.40;99.90
4564;DHT22;2294;51.818;8.484;2022-10-30T11:48:47;20.50;99.90
4564;DHT22;2294;51.818;8.484;2022-10-30T11:51:30;20.60;99.90
4564;DHT22;2294;51.818;8.484;2022-10-30T11:53:58;20.50;99.90
4564;DHT22;2294;51.818;8.484;2022-10-30T11:56:27;20.80;99.90
4564;DHT22;2294;51.818;8.484;2022-10-30T11:58:58;20.80;99.90
4564;DHT22;2294;51.818;8.484;2022-10-30T12:01:26;20.80;99.90
4564;DHT22;2294;51.818;8.484;2022-10-30T12:03:54;21.00;99.90
4564;DHT22;2294;51.818;8.484;2022-10-30T12:06:27;21.00;99.90
4564;DHT22;2294;51.818;8.484;2022-10-30T12:09:01;21.00;99.90
4564;DHT22;2294;51.818;8.484;2022-10-30T12:11:32;21.10;99.90
4564;DHT22;2294;51.818;8.484;2022-10-30T12:14:00;21.20;99.90
4564;DHT22;2294;51.818;8.484;2022-10-30T12:16:27;21.30;99.90
4564;DHT22;2294;51.818;8.484;2022-10-30T12:19:00;21.40;99.90
4564;DHT22;2294;51.818;8.484;2022-10-30T12:21:29;21.40;99.90
4564;DHT22;2294;51.818;8.484;2022-10-30T12:23:58;21.30;99.90
4564;DHT22;2294;51.818;8.484;2022-10-30T12:26:33;21.40;99.90
4564;DHT22;2294;51.818;8.484;2022-10-30T12:29:03;21.40;99.90
4564;DHT22;2294;51.818;8.484;2022-10-30T12:31:36;21.40;99.90
4564;DHT22;2294;51.818;8.484;2022-10-30T12:34:11;21.30;99.90
4564;DHT22;2294;51.818;8.484;2022-10-30T12:36:46;21.30;99.90
4564;DHT22;2294;51.818;8.484;2022-10-30T12:39:20;21.30;99.90
4564;DHT22;2294;51.818;8.484;2022-10-30T12:41:57;21.40;99.90
4564;DHT22;2294;51.818;8.484;2022-10-30T12:44:27;21.30;99.90
4564;DHT22;2294;51.818;8.484;2022-10-30T12:46:59;21.20;99.90
4564;DHT22;2294;51.818;8.484;2022-10-30T12:49:30;21.10;99.90
4564;DHT22;2294;51.818;8.484;2022-10-30T12:52:04;21.30;99.90
4564;DHT22;2294;51.818;8.484;2022-10-30T12:54:38;21.50;99.90
4564;DHT22;2294;51.818;8.484;2022-10-30T12:57:11;21.50;99.90
4564;DHT22;2294;51.818;8.484;2022-10-30T12:59:50;21.70;99.90
4564;DHT22;2294;51.818;8.484;2022-10-30T13:02:28;21.80;99.90
4564;DHT22;2294;51.818;8.484;2022-10-30T13:05:01;22.10;99.90
4564;DHT22;2294;51.818;8.484;2022-10-30T13:07:37;22.10;99.90
4564;DHT22;2294;51.818;8.484;2022-10-30T13:10:21;21.70;99.90
4564;DHT22;2294;51.818;8.484;2022-10-30T13:12:54;21.50;99.90
4564;DHT22;2294;51.818;8.484;2022-10-30T13:15:27;21.40;99.90
4564;DHT22;2294;51.818;8.484;2022-10-30T13:17:56;21.40;99.90
4564;DHT22;2294;51.818;8.484;2022-10-30T13:20:25;21.30;99.90
4564;DHT22;2294;51.818;8.484;2022-10-30T13:22:58;21.30;99.90
4564;DHT22;2294;51.818;8.484;2022-10-30T13:25:34;21.10;99.90
4564;DHT22;2294;51.818;8.484;2022-10-30T13:28:26;21.20;99.90
4564;DHT22;2294;51.818;8.484;2022-10-30T13:30:58;21.20;99.90
4564;DHT22;2294;51.818;8.484;2022-10-30T13:33:33;21.30;99.90
4564;DHT22;2294;51.818;8.484;2022-10-30T13:36:06;21.30;99.90
4564;DHT22;2294;51.818;8.484;2022-10-30T13:38:43;21.10;99.90
4564;DHT22;2294;51.818;8.484;2022-10-30T13:41:19;21.40;99.90
4564;DHT22;2294;51.818;8.484;2022-10-30T13:43:55;21.30;99.90
4564;DHT22;2294;51.818;8.484;2022-10-30T13:46:37;21.40;99.90
4564;DHT22;2294;51.818;8.484;2022-10-30T13:49:18;21.20;99.90
4564;DHT22;2294;51.818;8.484;2022-10-30T13:51:53;21.10;99.90
4564;DHT22;2294;51.818;8.484;2022-10-30T13:54:24;21.00;99.90
4564;DHT22;2294;51.818;8.484;2022-10-30T13:56:53;21.10;99.90
4564;DHT22;2294;51.818;8.484;2022-10-30T13:59:51;21.10;99.90
4564;DHT22;2294;51.818;8.484;2022-10-30T14:02:41;21.20;99.90
4564;DHT22;2294;51.818;8.484;2022-10-30T14:08:07;21.10;99.90
4564;DHT22;2294;51.818;8.484;2022-10-30T14:10:45;20.90;99.90
4564;DHT22;2294;51.818;8.484;2022-10-30T14:13:24;21.00;99.90
4564;DHT22;2294;51.818;8.484;2022-10-30T14:15:55;21.00;99.90
4564;DHT22;2294;51.818;8.484;2022-10-30T14:18:24;21.00;99.90
4564;DHT22;2294;51.818;8.484;2022-10-30T14:20:53;20.80;99.90
4564;DHT22;2294;51.818;8.484;2022-10-30T14:23:22;20.70;99.90
4564;DHT22;2294;51.818;8.484;2022-10-30T14:26:11;20.70;99.90
4564;DHT22;2294;51.818;8.484;2022-10-30T14:28:40;20.60;99.90
4564;DHT22;2294;51.818;8.484;2022-10-30T14:31:10;20.50;99.90
4564;DHT22;2294;51.818;8.484;2022-10-30T14:33:44;20.50;99.90
4564;DHT22;2294;51.818;8.484;2022-10-30T14:36:20;20.50;99.90
4564;DHT22;2294;51.818;8.484;2022-10-30T14:38:58;20.40;99.90
4564;DHT22;2294;51.818;8.484;2022-10-30T14:44:55;20.20;99.90
4564;DHT22;2294;51.818;8.484;2022-10-30T14:47:51;20.10;99.90
4564;DHT22;2294;51.818;8.484;2022-10-30T14:50:29;19.80;99.90
4564;DHT22;2294;51.818;8.484;2022-10-30T14:53:09;19.80;99.90
4564;DHT22;2294;51.818;8.484;2022-10-30T14:55:49;19.70;99.90
4564;DHT22;2294;51.818;8.484;2022-10-30T14:58:23;19.70;99.90
4564;DHT22;2294;51.818;8.484;2022-10-30T15:03:46;19.60;99.90
4564;DHT22;2294;51.818;8.484;2022-10-30T15:06:21;19.50;99.90
4564;DHT22;2294;51.818;8.484;2022-10-30T15:09:09;19.40;99.90
4564;DHT22;2294;51.818;8.484;2022-10-30T15:12:01;19.20;99.90
4564;DHT22;2294;51.818;8.484;2022-10-30T15:14:33;19.10;99.90
4564;DHT22;2294;51.818;8.484;2022-10-30T15:17:00;19.00;99.90
4564;DHT22;2294;51.818;8.484;2022-10-30T15:19:30;18.80;99.90
4564;DHT22;2294;51.818;8.484;2022-10-30T15:21:58;18.80;99.90
4564;DHT22;2294;51.818;8.484;2022-10-30T15:24:26;18.70;99.90
4564;DHT22;2294;51.818;8.484;2022-10-30T15:26:57;18.60;99.90
4564;DHT22;2294;51.818;8.484;2022-10-30T15:29:26;18.40;99.90
4564;DHT22;2294;51.818;8.484;2022-10-30T15:31:59;18.40;99.90
4564;DHT22;2294;51.818;8.484;2022-10-30T15:34:27;18.30;99.90
4564;DHT22;2294;51.818;8.484;2022-10-30T15:36:55;18.10;99.90
4564;DHT22;2294;51.818;8.484;2022-10-30T15:39:22;18.20;99.90
4564;DHT22;2294;51.818;8.484;2022-10-30T15:41:51;18.00;99.90
4564;DHT22;2294;51.818;8.484;2022-10-30T15:44:22;17.80;99.90
4564;DHT22;2294;51.818;8.484;2022-10-30T15:46:51;17.80;99.90
4564;DHT22;2294;51.818;8.484;2022-10-30T15:49:26;17.60;99.90
4564;DHT22;2294;51.818;8.484;2022-10-30T15:51:56;17.70;99.90
4564;DHT22;2294;51.818;8.484;2022-10-30T15:54:25;17.40;99.90
4564;DHT22;2294;51.818;8.484;2022-10-30T15:56:54;17.20;99.90
4564;DHT22;2294;51.818;8.484;2022-10-30T15:59:25;17.10;99.90
4564;DHT22;2294;51.818;8.484;2022-10-30T16:01:54;17.00;99.90
4564;DHT22;2294;51.818;8.484;2022-10-30T16:04:23;16.90;99.90
4564;DHT22;2294;51.818;8.484;2022-10-30T16:06:52;16.90;99.90
4564;DHT22;2294;51.818;8.484;2022-10-30T16:09:21;16.80;99.90
4564;DHT22;2294;51.818;8.484;2022-10-30T16:11:50;16.80;99.90
4564;DHT22;2294;51.818;8.484;2022-10-30T16:14:21;16.70;99.90
4564;DHT22;2294;51.818;8.484;2022-10-30T16:16:49;16.60;99.90
4564;DHT22;2294;51.818;8.484;2022-10-30T16:19:23;16.60;99.90
4564;DHT22;2294;51.818;8.484;2022-10-30T16:21:52;16.50;99.90
4564;DHT22;2294;51.818;8.484;2022-10-30T16:24:24;16.40;99.90
4564;DHT22;2294;51.818;8.484;2022-10-30T16:27:01;16.40;99.90
4564;DHT22;2294;51.818;8.484;2022-10-30T16:29:30;16.40;99.90
4564;DHT22;2294;51.818;8.484;2022-10-30T16:31:58;16.20;99.90
4564;DHT22;2294;51.818;8.484;2022-10-30T16:34:28;16.30;99.90
4564;DHT22;2294;51.818;8.484;2022-10-30T16:36:59;16.20;99.90